Time;durP1;ratioP1;P1;durP2;ratioP2;P2;SDS_P1;SDS_P2;PMS_P1;PMS_P2;Temp;Humidity;BMP_temperature;BMP_pressure;BME280_temperature;BME280_humidity;BME280_pressure;Samples;Min_cycle;Max_cycle;Signal;HPM_P1;HPM_P2
2023/01/15 00:01:56;;;;;;;14.27;5.60;;;;;;;8.13;75.33;98134.22;5324182;26;20057;-81
2023/01/15 00:04:23;;;;;;;16.58;5.53;;;;;;;8.22;75.01;98137.38;5324448;26;20059;-80
2023/01/15 00:06:50;;;;;;;15.50;5.75;;;;;;;7.99;76.48;98131.25;5324106;26;20048;-81
2023/01/15 00:09:17;;;;;;;16.10;5.57;;;;;;;7.54;78.92;98133.44;5324507;26;20057;-81
2023/01/15 00:11:44;;;;;;;13.10;5.10;;;;;;;7.60;78.42;98123.00;5324294;26;20057;-81
2023/01/15 00:14:11;;;;;;;;;;;;;;;7.49;78.62;98132.75;5324394;26;20110;-81
2023/01/15 00:16:39;;;;;;;12.65;4.75;;;;;;;7.91;76.29;98125.50;5324505;26;20001;-80
2023/01/15 00:19:09;;;;;;;12.70;5.00;;;;;;;7.81;74.87;98129.22;5324393;26;20057;-81
2023/01/15 00:21:36;;;;;;;13.68;5.00;;;;;;;7.91;75.23;98122.91;5322501;27;20407;-81
2023/01/15 00:29:35;;;;;;;13.75;5.07;;;;;;;9.00;68.26;98133.06;5323938;26;20067;-80
2023/01/15 00:32:03;;;;;;;;;;;;;;;9.08;67.04;98125.91;5324615;26;20484;-80
2023/01/15 00:34:30;;;;;;;;;;;;;;;8.68;69.00;98129.03;5324286;26;20031;-81
2023/01/15 00:36:57;;;;;;;13.38;4.90;;;;;;;8.71;68.94;98123.75;5324590;26;19953;-81
2023/01/15 00:39:25;;;;;;;13.60;5.25;;;;;;;8.81;68.04;98114.84;5324363;26;20064;-80
2023/01/15 00:41:53;;;;;;;13.57;4.90;;;;;;;8.63;68.41;98118.06;5323558;26;20487;-81
2023/01/15 00:44:20;;;;;;;13.32;5.18;;;;;;;8.79;68.36;98108.06;5323007;27;20121;-80
2023/01/15 00:46:47;;;;;;;11.15;4.40;;;;;;;8.86;66.99;98105.25;5324326;26;20059;-80
2023/01/15 00:49:15;;;;;;;10.93;4.03;;;;;;;8.33;68.67;98110.44;5323814;26;20126;-81
2023/01/15 00:51:42;;;;;;;10.85;4.28;;;;;;;8.11;70.26;98117.16;5322860;27;20068;-80
2023/01/15 00:54:09;;;;;;;11.02;4.00;;;;;;;8.28;68.91;98111.47;5324269;26;20049;-81
2023/01/15 00:56:36;;;;;;;10.93;4.40;;;;;;;8.45;67.62;98106.66;5322523;27;20051;-81
2023/01/15 00:59:04;;;;;;;11.77;3.97;;;;;;;8.21;67.66;98105.69;5324388;26;20445;-81
2023/01/15 01:01:31;;;;;;;11.27;4.30;;;;;;;9.13;64.21;98113.72;5323971;26;20087;-81
2023/01/15 01:03:58;;;;;;;10.75;3.90;;;;;;;8.89;64.57;98115.44;5323791;27;20461;-81
2023/01/15 01:06:25;;;;;;;10.70;3.80;;;;;;;9.06;63.88;98119.16;5324229;26;20053;-81
2023/01/15 01:08:52;;;;;;;10.63;4.20;;;;;;;9.15;63.77;98111.94;5324250;26;20396;-81
2023/01/15 01:11:20;;;;;;;;;;;;;;;9.74;60.30;98106.28;5324040;26;20467;-80
2023/01/15 01:13:47;;;;;;;11.30;3.85;;;;;;;8.74;64.30;98092.81;5324164;26;19960;-81
2023/01/15 01:16:30;;;;;;;11.52;3.85;;;;;;;9.22;62.83;98097.09;5324210;26;20045;-80
2023/01/15 01:18:58;;;;;;;11.43;4.12;;;;;;;9.12;63.12;98093.19;5324323;26;20061;-80
2023/01/15 01:21:26;;;;;;;8.50;3.45;;;;;;;8.11;66.46;98092.31;5323881;26;20473;-81
2023/01/15 01:23:53;;;;;;;10.82;4.00;;;;;;;8.52;65.22;98092.72;5322357;27;20048;-82
2023/01/15 01:26:20;;;;;;;11.68;3.60;;;;;;;8.28;65.56;98080.63;5324180;26;20045;-81
2023/01/15 01:28:48;;;;;;;;;;;;;;;8.74;64.53;98073.97;5324208;27;20060;-81
2023/01/15 01:31:14;;;;;;;10.43;3.83;;;;;;;8.77;64.03;98073.84;5323861;26;19967;-82
2023/01/15 01:33:41;;;;;;;10.60;3.75;;;;;;;8.33;64.06;98071.03;5323686;26;20076;-81
2023/01/15 01:36:08;;;;;;;10.13;3.60;;;;;;;8.42;64.59;98069.94;5324087;26;20103;-81
2023/01/15 01:38:35;;;;;;;10.45;3.92;;;;;;;8.67;63.33;98058.72;5323696;26;20064;-82
2023/01/15 01:41:02;;;;;;;;;;;;;;;8.93;62.29;98049.25;5324241;26;20064;-81
2023/01/15 01:43:29;;;;;;;10.60;3.90;;;;;;;8.53;64.04;98055.81;5324188;26;19956;-81
2023/01/15 01:45:56;;;;;;;11.07;4.07;;;;;;;8.42;63.44;98055.34;5323672;26;20048;-82
2023/01/15 01:48:27;;;;;;;11.30;3.40;;;;;;;8.77;62.42;98055.84;5324111;26;20060;-81
2023/01/15 01:50:55;;;;;;;8.85;3.25;;;;;;;8.82;61.42;98059.06;5323980;26;20056;-80
2023/01/15 01:53:26;;;;;;;9.00;3.65;;;;;;;8.62;61.81;98046.94;5322295;27;20105;-82
2023/01/15 01:55:54;;;;;;;12.25;3.97;;;;;;;9.94;57.73;98053.97;5322737;27;20049;-81
2023/01/15 01:58:22;;;;;;;11.30;3.80;;;;;;;9.86;57.30;98056.00;5322651;27;20069;-81
2023/01/15 02:00:50;;;;;;;10.32;3.90;;;;;;;10.03;57.52;98048.44;5322137;27;20056;-81
2023/01/15 02:03:19;;;;;;;10.38;4.00;;;;;;;9.82;56.61;98050.16;5322291;27;20057;-81
2023/01/15 02:05:49;;;;;;;11.48;3.80;;;;;;;10.97;53.80;98060.88;5322272;27;20106;-82
2023/01/15 02:08:16;;;;;;;10.65;4.30;;;;;;;10.47;54.34;98060.44;5324057;26;20071;-81
2023/01/15 02:10:48;;;;;;;12.73;4.20;;;;;;;10.27;55.56;98056.94;5323700;26;20064;-81
2023/01/15 02:13:36;;;;;;;11.40;4.45;;;;;;;10.71;53.67;98042.16;5322140;27;20052;-82
2023/01/15 02:16:23;;;;;;;9.57;4.18;;;;;;;11.51;51.11;98043.78;5323904;26;20099;-81
2023/01/15 02:18:58;;;;;;;10.07;4.32;;;;;;;11.16;51.51;98041.03;5322629;27;20160;-81
2023/01/15 02:21:52;;;;;;;9.27;3.78;;;;;;;10.99;52.17;98040.97;5323368;26;20056;-81
2023/01/15 02:24:56;;;;;;;11.35;4.07;;;;;;;11.34;51.23;98030.78;5322327;27;20063;-81
2023/01/15 02:27:24;;;;;;;11.60;3.97;;;;;;;11.66;49.88;98018.94;5323410;26;20378;-82
2023/01/15 02:29:58;;;;;;;10.30;3.80;;;;;;;11.17;51.22;98021.25;5323597;26;20061;-81
2023/01/15 02:32:33;;;;;;;9.45;3.62;;;;;;;10.89;52.06;98019.06;5321725;27;20060;-81
2023/01/15 02:35:26;;;;;;;10.73;4.32;;;;;;;9.93;54.63;98013.63;5323498;26;20154;-82
2023/01/15 02:38:00;;;;;;;10.38;4.03;;;;;;;9.92;54.53;98019.69;5322396;27;20110;-81
2023/01/15 02:40:27;;;;;;;10.05;3.78;;;;;;;10.42;53.30;98009.06;5322478;27;20111;-81
2023/01/15 02:42:55;;;;;;;10.10;3.28;;;;;;;10.49;52.25;98002.72;5322719;27;20056;-82
2023/01/15 02:45:35;;;;;;;8.57;3.15;;;;;;;10.18;53.83;98003.16;5323383;27;20112;-81
2023/01/15 02:48:07;;;;;;;9.77;3.83;;;;;;;10.36;53.42;98007.56;5323085;27;20079;-82
2023/01/15 02:50:42;;;;;;;10.85;4.57;;;;;;;10.61;52.01;98001.34;5323210;27;20435;-81
2023/01/15 02:53:13;;;;;;;10.68;3.60;;;;;;;10.27;52.94;97999.38;5323310;27;20406;-81
2023/01/15 02:55:43;;;;;;;11.40;3.97;;;;;;;10.24;53.70;97990.03;5322878;27;20366;-82
2023/01/15 02:58:13;;;;;;;12.00;3.95;;;;;;;10.42;52.59;97985.84;5323602;27;20103;-81
2023/01/15 03:00:44;;;;;;;8.23;3.45;;;;;;;9.35;57.41;97992.75;5323142;27;20419;-81
2023/01/15 03:03:43;;;;;;;10.10;3.80;;;;;;;10.34;53.56;97982.75;5322801;27;20061;-82
2023/01/15 03:06:15;;;;;;;10.80;3.53;;;;;;;10.96;51.28;97985.16;5324830;26;20366;-81
2023/01/15 03:08:42;;;;;;;8.13;3.40;;;;;;;10.88;50.59;97986.41;5324517;26;20055;-82
2023/01/15 03:11:14;;;;;;;8.75;3.35;;;;;;;10.29;51.30;97976.94;5324435;26;20068;-81
2023/01/15 03:13:47;;;;;;;10.50;3.47;;;;;;;11.12;49.68;97971.53;5323218;27;20400;-81
2023/01/15 03:16:35;;;;;;;11.65;3.80;;;;;;;11.36;48.92;97967.81;5324381;26;20045;-82
2023/01/15 03:19:19;;;;;;;9.30;3.33;;;;;;;11.10;49.93;97961.28;5323328;27;20067;-81
2023/01/15 03:22:05;;;;;;;10.68;3.60;;;;;;;11.04;50.18;97952.97;5324317;26;20064;-81
2023/01/15 03:24:49;;;;;;;10.25;3.42;;;;;;;10.45;51.50;97951.34;5322848;27;20060;-82
2023/01/15 03:27:16;;;;;;;9.13;3.45;;;;;;;10.99;50.48;97942.87;5324694;27;20045;-81
2023/01/15 03:29:48;;;;;;;10.57;3.47;;;;;;;10.95;50.32;97941.31;5324487;27;20045;-81
2023/01/15 03:32:16;;;;;;;9.23;3.40;;;;;;;10.87;50.56;97938.28;5322852;27;20060;-80
2023/01/15 03:34:48;;;;;;;9.68;3.45;;;;;;;10.55;51.13;97930.22;5324613;26;20072;-81
2023/01/15 03:37:16;;;;;;;9.75;3.42;;;;;;;11.06;49.89;97926.19;5322871;27;20053;-82
2023/01/15 03:39:43;;;;;;;9.30;3.55;;;;;;;10.58;50.15;97929.25;5324617;26;20045;-81
2023/01/15 03:42:47;;;;;;;9.27;3.42;;;;;;;10.99;49.46;97927.37;5322883;27;20056;-81
2023/01/15 03:45:22;;;;;;;7.87;3.28;;;;;;;9.76;52.72;97915.56;5322724;27;20060;-82
2023/01/15 03:48:01;;;;;;;9.57;3.45;;;;;;;10.39;50.88;97912.00;5323166;27;20053;-81
2023/01/15 03:50:45;;;;;;;10.23;3.37;;;;;;;9.93;52.65;97909.72;5324473;26;20071;-81
2023/01/15 03:53:20;;;;;;;9.60;3.47;;;;;;;10.05;52.51;97907.44;5323853;26;20114;-82
2023/01/15 03:56:05;;;;;;;10.15;3.67;;;;;;;10.21;51.62;97896.47;5323268;27;20075;-81
2023/01/15 03:58:39;;;;;;;8.30;3.08;;;;;;;10.01;51.55;97892.19;5324281;26;20059;-82
2023/01/15 04:01:09;;;;;;;8.02;2.87;;;;;;;9.90;52.64;97890.06;5323100;27;20098;-81
2023/01/15 04:03:37;;;;;;;7.68;3.00;;;;;;;10.28;51.59;97890.16;5323051;27;20069;-81
2023/01/15 04:06:05;;;;;;;8.77;3.17;;;;;;;10.69;50.01;97888.31;5323994;27;20057;-82
2023/01/15 04:08:36;;;;;;;9.18;3.10;;;;;;;10.38;50.51;97887.13;5324436;26;20045;-81
2023/01/15 04:11:04;;;;;;;8.57;3.08;;;;;;;10.38;50.43;97883.72;5322948;27;20117;-81
2023/01/15 04:13:30;;;;;;;9.15;3.55;;;;;;;10.83;50.02;97887.69;5322504;27;20217;-82
2023/01/15 04:15:58;;;;;;;11.15;3.85;;;;;;;10.75;49.57;97887.22;5324460;26;20437;-81
2023/01/15 04:18:25;;;;;;;8.07;2.97;;;;;;;10.39;49.98;97881.06;5324426;26;20063;-81
2023/01/15 04:20:53;;;;;;;11.45;3.33;;;;;;;9.40;53.13;97890.41;5323725;27;20045;-81
2023/01/15 04:23:21;;;;;;;10.52;3.40;;;;;;;8.85;54.70;97882.31;5324347;26;20061;-81
2023/01/15 04:25:48;;;;;;;9.75;3.60;;;;;;;9.95;52.24;97882.97;5324417;26;20071;-81
2023/01/15 04:28:15;;;;;;;11.27;3.37;;;;;;;8.66;55.29;97884.72;5324103;26;20044;-82
2023/01/15 04:30:42;;;;;;;10.38;3.40;;;;;;;8.75;55.95;97875.00;5324096;26;20049;-81
2023/01/15 04:33:10;;;;;;;10.20;3.75;;;;;;;10.18;51.47;97878.56;5321117;27;20129;-82
2023/01/15 04:35:37;;;;;;;7.55;3.08;;;;;;;8.80;56.52;97884.19;5324343;26;20395;-81
2023/01/15 04:38:04;;;;;;;10.57;4.50;;;;;;;9.33;55.16;97883.84;5324244;26;20049;-81
2023/01/15 04:46:02;;;;;;;11.05;3.65;;;;;;;9.54;52.88;97866.66;5324452;26;20110;-81
2023/01/15 04:48:30;;;;;;;11.43;3.55;;;;;;;10.07;51.42;97861.81;5322557;27;20052;-82
2023/01/15 04:51:01;;;;;;;10.63;3.25;;;;;;;8.94;53.90;97855.38;5324137;26;20102;-81
2023/01/15 04:53:28;;;;;;;9.10;2.95;;;;;;;10.02;51.91;97857.78;5324312;26;20069;-81
2023/01/15 04:56:03;;;;;;;10.18;3.92;;;;;;;10.54;49.93;97858.06;5323973;27;20118;-82
2023/01/15 04:58:31;;;;;;;8.80;3.03;;;;;;;9.94;51.44;97847.78;5324436;26;20082;-81
2023/01/15 05:00:59;;;;;;;10.07;2.87;;;;;;;9.62;52.22;97849.16;5304525;27;20438;-82
2023/01/15 05:03:30;;;;;;;10.05;3.20;;;;;;;9.51;52.08;97848.78;5323614;26;20408;-81
2023/01/15 05:06:01;;;;;;;8.57;3.25;;;;;;;9.79;51.79;97843.31;5324270;27;20075;-81
2023/01/15 05:08:27;;;;;;;9.35;2.90;;;;;;;9.67;51.96;97844.63;5323875;26;20081;-82
2023/01/15 05:10:54;;;;;;;10.77;3.33;;;;;;;10.09;50.87;97838.53;5323932;26;20049;-81
2023/01/15 05:13:21;;;;;;;9.15;3.35;;;;;;;9.52;52.02;97835.84;5324180;26;20549;-81
2023/01/15 05:15:48;;;;;;;;;;;;;;;10.28;50.50;97825.72;5324222;26;20375;-82
2023/01/15 05:18:15;;;;;;;12.43;4.15;;;;;;;9.81;51.82;97816.56;5324329;26;19964;-81
2023/01/15 05:20:41;;;;;;;;;;;;;;;9.45;52.18;97818.94;5324328;26;20045;-81
2023/01/15 05:23:08;;;;;;;11.80;4.80;;;;;;;10.10;51.49;97820.44;5323751;27;19964;-82
2023/01/15 05:25:36;;;;;;;11.02;3.83;;;;;;;9.82;52.04;97820.81;5324120;27;20460;-81
2023/01/15 05:28:03;;;;;;;10.25;3.30;;;;;;;9.45;52.74;97812.97;5324077;26;20493;-81
2023/01/15 05:30:30;;;;;;;9.48;3.10;;;;;;;10.27;50.28;97813.72;5323645;26;20392;-81
2023/01/15 05:32:57;;;;;;;11.90;3.20;;;;;;;9.79;51.55;97815.81;5323689;26;20065;-81
2023/01/15 05:35:23;;;;;;;;;;;;;;;10.22;49.83;97821.69;5324546;26;20057;-81
2023/01/15 05:37:50;;;;;;;8.05;3.12;;;;;;;9.59;51.82;97820.13;5323783;26;20005;-82
2023/01/15 05:40:17;;;;;;;;;;;;;;;9.90;50.95;97811.91;5324388;27;20370;-81
2023/01/15 05:42:44;;;;;;;12.35;3.65;;;;;;;9.12;53.35;97816.03;5323990;26;19960;-81
2023/01/15 05:45:10;;;;;;;;;;;;;;;9.83;51.45;97819.91;5324089;26;20044;-82
2023/01/15 05:47:37;;;;;;;8.60;2.92;;;;;;;8.53;55.88;97808.94;5324362;26;20020;-81
2023/01/15 05:50:04;;;;;;;;;;;;;;;8.75;54.77;97813.25;5324303;26;20367;-80
2023/01/15 05:52:31;;;;;;;9.77;3.30;;;;;;;9.11;54.04;97811.78;5323813;27;19964;-81
2023/01/15 05:54:58;;;;;;;11.55;3.90;;;;;;;8.20;55.49;97817.91;5324081;27;20053;-81
2023/01/15 05:57:25;;;;;;;8.68;3.15;;;;;;;9.04;53.56;97822.38;5323752;26;20057;-82
2023/01/15 05:59:53;;;;;;;;;;;;;;;9.30;52.36;97818.75;5324280;26;20057;-80
2023/01/15 06:02:19;;;;;;;;;;;;;;;8.95;53.97;97819.28;5324304;26;19967;-81
2023/01/15 06:04:46;;;;;;;9.55;3.10;;;;;;;9.04;53.01;97810.38;5323642;26;19968;-82
2023/01/15 06:07:13;;;;;;;9.85;3.12;;;;;;;8.93;53.62;97805.66;5324111;26;20049;-81
2023/01/15 06:09:40;;;;;;;9.60;2.75;;;;;;;8.23;54.77;97802.34;5323888;26;20436;-80
2023/01/15 06:12:07;;;;;;;9.15;3.17;;;;;;;9.17;53.17;97800.41;5323477;27;20061;-81
2023/01/15 06:14:34;;;;;;;7.97;2.83;;;;;;;9.46;52.20;97802.62;5323926;26;20057;-81
2023/01/15 06:17:01;;;;;;;10.07;3.03;;;;;;;9.03;53.18;97794.97;5324749;27;20046;-81
2023/01/15 06:19:28;;;;;;;14.25;3.95;;;;;;;8.92;53.55;97795.41;5324380;26;20106;-82
2023/01/15 06:21:55;;;;;;;13.10;4.50;;;;;;;8.04;56.43;97789.34;5324628;26;20426;-81
2023/01/15 06:24:22;;;;;;;20.85;6.10;;;;;;;9.15;53.90;97777.31;5324666;26;20106;-81
2023/01/15 06:26:49;;;;;;;19.17;6.07;;;;;;;9.07;53.33;97781.94;5324386;26;20083;-82
2023/01/15 06:29:17;;;;;;;15.07;4.68;;;;;;;8.74;54.74;97783.28;5324830;26;20075;-81
2023/01/15 06:31:45;;;;;;;12.65;4.50;;;;;;;8.08;56.60;97778.03;5324598;26;20076;-81
2023/01/15 06:34:12;;;;;;;12.25;4.53;;;;;;;9.22;54.13;97781.28;5322702;27;20433;-81
2023/01/15 06:36:39;;;;;;;13.38;4.68;;;;;;;8.98;54.03;97774.59;5324799;26;20352;-81
2023/01/15 06:39:05;;;;;;;10.80;3.90;;;;;;;8.00;58.02;97777.50;5324751;26;20059;-81
2023/01/15 06:47:19;;;;;;;12.23;4.57;;;;;;;7.60;60.30;97773.78;5324472;26;20052;-81
2023/01/15 06:49:54;;;;;;;16.67;5.75;;;;;;;7.64;60.70;97780.47;5323373;27;20045;-81
2023/01/15 06:52:23;;;;;;;12.63;4.97;;;;;;;7.06;62.91;97768.81;5323286;27;20072;-81
2023/01/15 06:54:50;;;;;;;11.55;4.07;;;;;;;6.70;64.35;97775.94;5324282;26;20118;-81
2023/01/15 06:57:20;;;;;;;13.00;4.37;;;;;;;7.52;61.79;97776.63;5324732;26;20044;-81
2023/01/15 06:59:48;;;;;;;12.10;4.32;;;;;;;6.72;63.90;97782.72;5323211;27;20053;-80
2023/01/15 07:02:16;;;;;;;12.05;4.37;;;;;;;6.02;67.60;97775.44;5324197;26;20430;-81
2023/01/15 07:04:44;;;;;;;12.93;4.72;;;;;;;6.16;67.73;97771.62;5324552;26;20052;-81
2023/01/15 07:07:11;;;;;;;11.43;4.55;;;;;;;6.21;68.13;97769.78;5324555;26;20102;-81
2023/01/15 07:09:37;;;;;;;;;;;;;;;6.31;67.65;97779.72;5324563;26;20316;-80
2023/01/15 07:12:04;;;;;;;15.00;4.43;;;;;;;6.45;66.62;97765.63;5324712;26;19968;-81
2023/01/15 07:14:31;;;;;;;11.18;4.53;;;;;;;6.52;66.79;97757.72;5324180;27;20065;-81
2023/01/15 07:16:58;;;;;;;13.43;4.90;;;;;;;6.46;67.10;97755.31;5324639;26;20098;-81
2023/01/15 07:19:26;;;;;;;;;;;;;;;7.27;64.40;97764.69;5324989;26;20049;-81
2023/01/15 07:21:53;;;;;;;12.63;4.97;;;;;;;8.10;61.31;97768.56;5324241;26;19964;-81
2023/01/15 07:24:20;;;;;;;12.43;4.37;;;;;;;7.78;62.10;97762.03;5324548;26;20110;-81
2023/01/15 07:26:47;;;;;;;13.32;4.93;;;;;;;8.39;59.75;97757.19;5324377;26;20104;-81
2023/01/15 07:29:14;;;;;;;12.88;4.90;;;;;;;8.85;58.33;97753.66;5324145;26;20651;-82
2023/01/15 07:31:41;;;;;;;12.27;4.00;;;;;;;8.39;59.51;97750.31;5324321;26;20061;-80
2023/01/15 07:34:09;;;;;;;11.02;3.95;;;;;;;8.11;60.55;97739.41;5324318;26;20060;-80
2023/01/15 07:36:36;;;;;;;14.00;5.00;;;;;;;7.88;61.16;97742.00;5324160;26;20068;-81
2023/01/15 07:39:04;;;;;;;11.77;4.95;;;;;;;7.86;62.05;97739.47;5323130;27;20045;-80
2023/01/15 07:50:18;;;;;;;13.95;5.53;;;;;;;7.89;62.22;97721.37;5324123;26;20102;-80
2023/01/15 07:52:45;;;;;;;12.63;5.00;;;;;;;7.43;64.34;97717.06;5324270;26;20057;-81
2023/01/15 07:55:12;;;;;;;12.52;5.15;;;;;;;7.65;63.53;97715.41;5324503;26;20057;-80
2023/01/15 07:57:40;;;;;;;12.82;4.85;;;;;;;7.22;64.28;97718.66;5323883;26;20060;-81
2023/01/15 08:00:13;;;;;;;10.10;3.87;;;;;;;6.98;65.62;97697.22;5324360;26;20052;-80
2023/01/15 08:02:40;;;;;;;11.45;4.00;;;;;;;6.88;66.19;97693.31;5324275;26;20061;-81
2023/01/15 08:05:08;;;;;;;11.82;3.87;;;;;;;7.42;64.62;97693.13;5322634;27;20070;-81
2023/01/15 08:07:39;;;;;;;14.87;5.40;;;;;;;7.20;63.45;97687.91;5324393;26;20049;-81
2023/01/15 08:10:10;;;;;;;16.45;5.90;;;;;;;7.29;65.70;97691.87;5324356;26;20045;-80
2023/01/15 08:15:24;;;;;;;14.98;5.80;;;;;;;7.46;64.54;97699.00;5324572;26;20059;-81
2023/01/15 08:17:51;;;;;;;15.88;5.82;;;;;;;7.63;66.16;97698.38;5324035;26;20057;-81
2023/01/15 08:20:22;;;;;;;14.52;6.30;;;;;;;7.80;65.35;97698.59;5322898;27;20041;-80
2023/01/15 08:22:49;;;;;;;21.83;8.02;;;;;;;7.95;64.56;97705.72;5322823;27;20056;-81
2023/01/15 08:25:19;;;;;;;14.98;5.47;;;;;;;8.16;63.67;97714.34;5323894;26;20053;-82
2023/01/15 08:27:46;;;;;;;15.52;5.90;;;;;;;7.65;64.88;97719.69;5305068;27;20431;-81
2023/01/15 08:30:16;;;;;;;13.40;4.97;;;;;;;8.03;63.42;97724.28;5322861;27;20465;-81
2023/01/15 08:32:43;;;;;;;14.52;5.22;;;;;;;7.80;63.81;97716.59;5323955;26;20064;-82
2023/01/15 08:35:09;;;;;;;;;;;;;;;8.04;62.35;97707.94;5324737;26;20067;-81
2023/01/15 08:37:36;;;;;;;12.48;4.43;;;;;;;7.68;64.14;97712.75;5324410;26;19960;-81
2023/01/15 08:40:03;;;;;;;;;;;;;;;7.77;63.02;97707.28;5323682;26;20041;-80
2023/01/15 08:42:30;;;;;;;14.45;5.50;;;;;;;7.97;62.78;97693.66;5324470;26;19968;-81
2023/01/15 08:44:57;;;;;;;12.75;5.30;;;;;;;8.05;61.86;97695.94;5324208;26;20316;-81
2023/01/15 08:47:24;;;;;;;;;;;;;;;7.98;62.29;97690.22;5324161;26;20059;-81
2023/01/15 08:49:51;;;;;;;17.23;6.50;;;;;;;8.16;61.97;97700.66;5322846;27;19961;-80
2023/01/15 08:52:17;;;;;;;;;;;;;;;7.78;62.97;97705.53;5324577;26;20053;-81
2023/01/15 08:54:44;;;;;;;16.15;5.87;;;;;;;7.94;62.50;97701.47;5323961;26;19968;-81
2023/01/15 08:57:12;;;;;;;14.77;4.75;;;;;;;8.03;61.91;97703.72;5324190;27;20680;-80
2023/01/15 08:59:42;;;;;;;12.68;4.47;;;;;;;7.89;61.80;97710.28;5324025;26;20045;-81
2023/01/15 09:02:13;;;;;;;13.45;3.80;;;;;;;8.05;59.93;97688.22;5324136;26;20060;-81
2023/01/15 09:04:40;;;;;;;11.23;4.18;;;;;;;8.24;59.56;97696.06;5324089;26;20118;-81
2023/01/15 09:07:07;;;;;;;14.05;4.37;;;;;;;8.05;60.37;97708.78;5322522;27;20136;-81
2023/01/15 09:09:34;;;;;;;12.07;4.32;;;;;;;8.48;58.57;97686.59;5324154;26;20041;-80
2023/01/15 09:12:01;;;;;;;12.10;4.53;;;;;;;9.16;56.08;97693.22;5324082;26;20061;-81
2023/01/15 09:14:28;;;;;;;9.77;4.32;;;;;;;9.13;56.90;97688.16;5323703;26;20060;-81
2023/01/15 09:17:15;;;;;;;10.30;4.20;;;;;;;9.48;57.12;97681.50;5324181;26;20049;-81
2023/01/15 09:19:42;;;;;;;;;;;;;;;10.02;54.70;97683.34;5324575;26;20155;-81
2023/01/15 09:22:09;;;;;;;14.10;4.78;;;;;;;9.79;54.66;97680.97;5323697;26;19959;-81
2023/01/15 09:24:36;;;;;;;13.27;4.00;;;;;;;9.81;55.11;97677.44;5324116;26;20057;-81
2023/01/15 09:27:03;;;;;;;12.88;4.87;;;;;;;10.92;51.97;97681.59;5324203;26;20090;-81
2023/01/15 09:29:30;;;;;;;11.27;4.18;;;;;;;10.87;51.66;97672.44;5322439;27;20053;-81
2023/01/15 09:31:56;;;;;;;;;;;;;;;10.75;51.68;97676.44;5324305;26;20080;-81
2023/01/15 09:34:23;;;;;;;10.45;4.12;;;;;;;11.11;51.43;97678.09;5323889;26;19990;-81
2023/01/15 09:36:50;;;;;;;;;;;;;;;11.04;49.29;97668.97;5323948;26;20049;-81
2023/01/15 09:39:17;;;;;;;10.90;3.10;;;;;;;11.26;50.21;97674.72;5324306;26;19952;-81
2023/01/15 09:42:14;;;;;;;9.20;3.60;;;;;;;10.18;50.52;97667.97;5323526;26;20163;-81
2023/01/15 09:45:10;;;;;;;9.85;3.05;;;;;;;11.14;49.66;97665.84;5315670;27;20091;-81
2023/01/15 09:48:18;;;;;;;9.95;3.53;;;;;;;10.58;50.19;97653.22;5324260;26;20048;-81
2023/01/15 09:51:03;;;;;;;8.00;3.10;;;;;;;11.05;49.08;97650.81;5233680;27;20046;-81
2023/01/15 09:53:55;;;;;;;7.80;2.70;;;;;;;10.79;48.80;97643.56;5216650;27;20062;-81
2023/01/15 09:56:26;;;;;;;8.70;2.60;;;;;;;10.95;48.47;97629.84;5304995;26;20411;-81
2023/01/15 09:58:55;;;;;;;9.27;2.87;;;;;;;10.60;50.48;97623.84;5322767;27;20340;-81
2023/01/15 10:01:29;;;;;;;10.48;3.05;;;;;;;10.79;49.42;97625.50;5322485;27;20044;-81
2023/01/15 10:04:08;;;;;;;7.53;2.60;;;;;;;11.25;48.55;97608.50;5321964;27;20056;-81
2023/01/15 10:06:40;;;;;;;8.80;2.62;;;;;;;11.43;47.65;97607.53;5324112;26;20464;-81
2023/01/15 10:09:14;;;;;;;8.90;3.00;;;;;;;10.83;49.24;97611.53;5323922;26;20108;-81
2023/01/15 10:14:51;;;;;;;7.62;2.55;;;;;;;12.26;46.55;97603.88;5324008;26;20053;-81
2023/01/15 10:17:24;;;;;;;7.00;2.30;;;;;;;12.00;46.73;97594.97;5323582;26;20053;-81
2023/01/15 10:19:52;;;;;;;9.10;2.97;;;;;;;12.33;46.63;97602.59;5322387;27;20053;-81
2023/01/15 10:22:41;;;;;;;8.77;2.45;;;;;;;12.96;44.83;97602.34;5322528;27;20048;-81
2023/01/15 10:25:14;;;;;;;6.55;2.30;;;;;;;13.69;43.54;97614.41;5279808;26;20057;-81
2023/01/15 10:27:45;;;;;;;6.95;2.20;;;;;;;13.70;43.31;97605.69;5323942;27;20109;-81
2023/01/15 10:30:15;;;;;;;7.60;2.47;;;;;;;13.66;43.50;97605.06;5323697;26;20057;-81
2023/01/15 10:32:47;;;;;;;8.20;2.45;;;;;;;13.40;42.97;97603.22;5323464;26;20048;-81
2023/01/15 10:35:46;;;;;;;6.93;2.70;;;;;;;13.44;44.08;97597.78;5322722;27;20064;-81
2023/01/15 10:38:38;;;;;;;9.65;2.72;;;;;;;13.96;43.01;97589.34;5323529;26;20690;-82
2023/01/15 10:41:41;;;;;;;8.18;2.87;;;;;;;14.37;41.58;97578.06;5323548;26;20052;-81
2023/01/15 10:44:17;;;;;;;7.30;2.22;;;;;;;13.87;42.92;97567.41;5289041;27;20045;-81
2023/01/15 10:46:53;;;;;;;8.55;2.50;;;;;;;13.53;42.53;97573.06;5321994;27;20064;-81
2023/01/15 10:49:28;;;;;;;6.80;2.30;;;;;;;13.01;44.66;97568.44;5323850;26;20056;-81
2023/01/15 10:52:05;;;;;;;8.63;3.22;;;;;;;14.01;42.88;97556.16;5323125;26;20052;-82
2023/01/15 10:55:13;;;;;;;6.45;2.50;;;;;;;13.35;43.18;97545.69;5323755;26;20045;-81
2023/01/15 10:57:50;;;;;;;8.35;2.60;;;;;;;12.49;45.18;97530.09;5299115;26;20079;-81
2023/01/15 11:00:36;;;;;;;9.00;2.70;;;;;;;12.45;45.22;97526.03;5323098;26;20066;-81
2023/01/15 11:03:07;;;;;;;9.27;2.70;;;;;;;12.23;45.63;97498.00;5322951;27;20726;-81
2023/01/15 11:05:35;;;;;;;9.48;2.53;;;;;;;12.29;45.72;97502.81;5323179;27;20106;-81
2023/01/15 11:08:05;;;;;;;7.28;2.95;;;;;;;12.03;46.67;97483.63;5322797;27;20079;-81
2023/01/15 11:10:52;;;;;;;9.40;3.30;;;;;;;11.78;47.13;97475.56;5323249;27;20068;-81
2023/01/15 11:19:35;;;;;;;9.65;3.53;;;;;;;10.82;49.40;97457.59;5324776;26;20674;-81
2023/01/15 11:22:12;;;;;;;8.20;2.87;;;;;;;10.91;48.98;97445.06;5322944;27;20437;-82
2023/01/15 11:24:54;;;;;;;7.65;2.40;;;;;;;11.32;48.70;97452.31;5323094;27;20063;-81
2023/01/15 11:27:26;;;;;;;9.90;3.35;;;;;;;11.22;48.46;97446.81;5324355;26;20045;-82
2023/01/15 11:29:55;;;;;;;6.30;2.90;;;;;;;10.79;50.03;97447.47;5323123;27;20061;-81
2023/01/15 11:32:31;;;;;;;7.97;2.75;;;;;;;10.91;50.12;97437.31;5324511;26;20068;-81
2023/01/15 11:35:15;;;;;;;7.75;3.05;;;;;;;11.30;48.72;97451.56;5322525;27;20063;-81
2023/01/15 11:37:42;;;;;;;7.45;2.97;;;;;;;11.61;48.35;97434.34;5324661;26;20055;-81
2023/01/15 11:40:20;;;;;;;9.25;2.87;;;;;;;11.32;48.18;97441.97;5324407;26;20064;-81
2023/01/15 11:51:07;;;;;;;9.27;3.35;;;;;;;11.71;47.86;97425.16;5323148;27;20065;-81
2023/01/15 11:53:40;;;;;;;6.78;2.58;;;;;;;11.40;47.69;97423.47;5323078;27;20371;-81
2023/01/15 11:56:12;;;;;;;8.35;2.70;;;;;;;11.27;47.87;97424.16;5324183;26;20059;-82
2023/01/15 11:58:44;;;;;;;6.50;2.75;;;;;;;11.26;47.73;97414.72;5323215;27;20533;-81
2023/01/15 12:01:15;;;;;;;7.30;2.55;;;;;;;11.55;46.79;97409.69;5322981;27;20060;-81
2023/01/15 12:03:42;;;;;;;5.28;2.20;;;;;;;11.24;46.75;97421.72;5323972;26;20070;-82
2023/01/15 12:06:12;;;;;;;7.78;2.30;;;;;;;11.66;47.02;97419.41;5324394;26;20113;-81
2023/01/15 12:08:47;;;;;;;8.30;2.87;;;;;;;11.15;47.26;97411.06;5324440;26;20044;-81
2023/01/15 12:11:52;;;;;;;7.40;2.58;;;;;;;11.15;47.85;97406.75;5322474;27;20065;-81
2023/01/15 12:14:30;;;;;;;6.57;2.42;;;;;;;10.85;48.27;97419.59;5324254;27;20060;-81
2023/01/15 12:17:12;;;;;;;6.87;2.47;;;;;;;11.50;46.35;97402.22;5323944;26;20053;-82
2023/01/15 12:19:55;;;;;;;6.47;2.30;;;;;;;11.80;45.66;97393.63;5324386;26;20041;-81
2023/01/15 12:22:27;;;;;;;5.40;1.95;;;;;;;11.41;46.07;97397.56;5322935;27;20076;-81
2023/01/15 12:25:22;;;;;;;5.72;2.00;;;;;;;11.58;46.66;97394.81;5324048;26;20075;-82
2023/01/15 12:28:13;;;;;;;5.62;2.30;;;;;;;11.73;46.40;97395.72;5324520;27;20057;-81
2023/01/15 12:30:55;;;;;;;7.28;2.60;;;;;;;10.85;47.19;97380.03;5324009;26;20552;-81
2023/01/15 12:33:45;;;;;;;7.00;2.30;;;;;;;10.76;47.52;97376.22;5323930;26;20060;-81
2023/01/15 12:36:25;;;;;;;8.75;2.75;;;;;;;11.54;46.95;97375.25;5323001;27;20102;-81
2023/01/15 12:39:00;;;;;;;5.65;2.12;;;;;;;10.86;47.88;97364.47;5322645;27;20113;-82
2023/01/15 12:47:32;;;;;;;7.35;2.60;;;;;;;10.96;48.21;97352.72;5324448;26;20406;-81
2023/01/15 12:50:28;;;;;;;6.65;2.60;;;;;;;11.62;46.51;97359.34;5324345;26;20052;-81
2023/01/15 12:53:13;;;;;;;6.45;2.53;;;;;;;11.01;47.58;97361.03;5319763;27;20317;-82